sensor_id;sensor_type;location;lat;lon;timestamp;pressure;altitude;pressure_sealevel;temperature;humidity
57990;BME280;58373;51.824;5.564;2023-09-30T00:00:41;102411.13;;;12.67;95.26
57990;BME280;58373;51.824;5.564;2023-09-30T00:03:06;102405.06;;;12.67;95.85
57990;BME280;58373;51.824;5.564;2023-09-30T00:05:32;102400.72;;;12.67;95.44
57990;BME280;58373;51.824;5.564;2023-09-30T00:07:57;102408.72;;;12.64;95.97
57990;BME280;58373;51.824;5.564;2023-09-30T00:10:22;102418.28;;;12.64;95.45
57990;BME280;58373;51.824;5.564;2023-09-30T00:12:47;102424.22;;;12.66;95.84
57990;BME280;58373;51.824;5.564;2023-09-30T00:15:12;102421.72;;;12.64;95.73
57990;BME280;58373;51.824;5.564;2023-09-30T00:17:38;102425.28;;;12.63;96.02
57990;BME280;58373;51.824;5.564;2023-09-30T00:20:03;102428.16;;;12.59;95.99
57990;BME280;58373;51.824;5.564;2023-09-30T00:22:29;102417.88;;;12.57;96.05
57990;BME280;58373;51.824;5.564;2023-09-30T00:24:54;102413.38;;;12.59;96.69
57990;BME280;58373;51.824;5.564;2023-09-30T00:27:19;102423.69;;;12.61;96.07
57990;BME280;58373;51.824;5.564;2023-09-30T00:29:44;102423.78;;;12.59;96.36
57990;BME280;58373;51.824;5.564;2023-09-30T00:32:10;102424.00;;;12.56;96.30
57990;BME280;58373;51.824;5.564;2023-09-30T00:34:35;102420.66;;;12.54;96.72
57990;BME280;58373;51.824;5.564;2023-09-30T00:37:00;102427.53;;;12.55;96.62
57990;BME280;58373;51.824;5.564;2023-09-30T00:39:25;102432.72;;;12.55;96.91
57990;BME280;58373;51.824;5.564;2023-09-30T00:41:54;102445.00;;;12.53;97.01
57990;BME280;58373;51.824;5.564;2023-09-30T00:44:20;102456.53;;;12.49;96.69
57990;BME280;58373;51.824;5.564;2023-09-30T00:46:45;102450.78;;;12.44;97.11
57990;BME280;58373;51.824;5.564;2023-09-30T00:49:10;102451.00;;;12.41;96.95
57990;BME280;58373;51.824;5.564;2023-09-30T00:51:38;102448.28;;;12.42;97.44
57990;BME280;58373;51.824;5.564;2023-09-30T00:54:03;102429.78;;;12.47;97.22
57990;BME280;58373;51.824;5.564;2023-09-30T00:56:29;102425.31;;;12.49;97.04
57990;BME280;58373;51.824;5.564;2023-09-30T00:58:55;102439.09;;;12.51;96.94
57990;BME280;58373;51.824;5.564;2023-09-30T01:01:21;102426.78;;;12.53;97.49
57990;BME280;58373;51.824;5.564;2023-09-30T01:03:47;102422.53;;;12.52;97.34
57990;BME280;58373;51.824;5.564;2023-09-30T01:06:12;102431.28;;;12.51;96.90
57990;BME280;58373;51.824;5.564;2023-09-30T01:08:37;102437.38;;;12.50;97.12
57990;BME280;58373;51.824;5.564;2023-09-30T01:11:03;102448.72;;;12.49;97.02
57990;BME280;58373;51.824;5.564;2023-09-30T01:13:34;102453.31;;;12.45;97.08
57990;BME280;58373;51.824;5.564;2023-09-30T01:16:07;102452.66;;;12.42;97.49
57990;BME280;58373;51.824;5.564;2023-09-30T01:18:34;102442.25;;;12.42;97.52
57990;BME280;58373;51.824;5.564;2023-09-30T01:21:01;102437.06;;;12.42;97.15
57990;BME280;58373;51.824;5.564;2023-09-30T01:23:28;102442.47;;;12.39;97.14
57990;BME280;58373;51.824;5.564;2023-09-30T01:25:54;102461.59;;;12.38;97.52
57990;BME280;58373;51.824;5.564;2023-09-30T01:28:19;102472.38;;;12.32;97.36
57990;BME280;58373;51.824;5.564;2023-09-30T01:30:45;102477.69;;;12.30;97.54
57990;BME280;58373;51.824;5.564;2023-09-30T01:33:10;102479.47;;;12.30;97.47
57990;BME280;58373;51.824;5.564;2023-09-30T01:35:36;102475.91;;;12.31;97.83
57990;BME280;58373;51.824;5.564;2023-09-30T01:38:01;102473.16;;;12.34;97.67
57990;BME280;58373;51.824;5.564;2023-09-30T01:40:26;102460.31;;;12.31;97.61
57990;BME280;58373;51.824;5.564;2023-09-30T01:42:51;102461.97;;;12.32;97.59
57990;BME280;58373;51.824;5.564;2023-09-30T01:45:17;102472.38;;;12.32;97.75
57990;BME280;58373;51.824;5.564;2023-09-30T01:47:42;102459.03;;;12.23;97.53
57990;BME280;58373;51.824;5.564;2023-09-30T01:50:07;102453.00;;;12.23;97.65
57990;BME280;58373;51.824;5.564;2023-09-30T01:52:32;102438.41;;;12.20;97.45
57990;BME280;58373;51.824;5.564;2023-09-30T01:54:58;102444.53;;;12.19;97.83
57990;BME280;58373;51.824;5.564;2023-09-30T01:57:23;102445.28;;;12.21;98.23
57990;BME280;58373;51.824;5.564;2023-09-30T01:59:48;102447.13;;;12.19;97.90
57990;BME280;58373;51.824;5.564;2023-09-30T02:02:14;102449.00;;;12.17;97.87
57990;BME280;58373;51.824;5.564;2023-09-30T02:04:40;102439.53;;;12.16;97.95
57990;BME280;58373;51.824;5.564;2023-09-30T02:07:05;102444.91;;;12.13;97.93
57990;BME280;58373;51.824;5.564;2023-09-30T02:09:31;102452.94;;;12.10;98.15
57990;BME280;58373;51.824;5.564;2023-09-30T02:11:56;102451.44;;;12.06;98.32
57990;BME280;58373;51.824;5.564;2023-09-30T02:14:21;102453.28;;;12.04;98.78
57990;BME280;58373;51.824;5.564;2023-09-30T02:16:46;102464.34;;;12.08;98.61
57990;BME280;58373;51.824;5.564;2023-09-30T02:19:11;102472.03;;;12.09;98.67
57990;BME280;58373;51.824;5.564;2023-09-30T02:21:38;102472.03;;;12.09;98.99
57990;BME280;58373;51.824;5.564;2023-09-30T02:24:03;102466.84;;;12.09;99.08
57990;BME280;58373;51.824;5.564;2023-09-30T02:26:31;102464.34;;;12.08;99.30
57990;BME280;58373;51.824;5.564;2023-09-30T02:28:57;102468.72;;;12.07;99.47
57990;BME280;58373;51.824;5.564;2023-09-30T02:31:24;102472.25;;;12.06;99.74
57990;BME280;58373;51.824;5.564;2023-09-30T02:33:49;102467.78;;;12.08;99.25
57990;BME280;58373;51.824;5.564;2023-09-30T02:36:14;102468.53;;;12.10;99.62
57990;BME280;58373;51.824;5.564;2023-09-30T02:38:40;102459.97;;;12.08;99.50
57990;BME280;58373;51.824;5.564;2023-09-30T02:41:06;102457.59;;;12.05;99.05
57990;BME280;58373;51.824;5.564;2023-09-30T02:43:31;102454.03;;;12.06;99.30
57990;BME280;58373;51.824;5.564;2023-09-30T02:45:57;102458.31;;;12.07;99.89
57990;BME280;58373;51.824;5.564;2023-09-30T02:48:22;102451.25;;;12.09;99.99
57990;BME280;58373;51.824;5.564;2023-09-30T02:50:47;102440.66;;;12.12;99.73
57990;BME280;58373;51.824;5.564;2023-09-30T02:53:13;102439.94;;;12.10;99.13
57990;BME280;58373;51.824;5.564;2023-09-30T02:55:39;102439.00;;;12.11;99.81
57990;BME280;58373;51.824;5.564;2023-09-30T02:58:04;102442.31;;;12.13;99.38
57990;BME280;58373;51.824;5.564;2023-09-30T03:00:29;102437.13;;;12.13;99.13
57990;BME280;58373;51.824;5.564;2023-09-30T03:02:58;102425.88;;;12.13;99.34
57990;BME280;58373;51.824;5.564;2023-09-30T03:05:24;102443.44;;;12.09;99.42
57990;BME280;58373;51.824;5.564;2023-09-30T03:07:49;102454.97;;;12.05;99.73
57990;BME280;58373;51.824;5.564;2023-09-30T03:10:17;102454.16;;;12.05;99.60
57990;BME280;58373;51.824;5.564;2023-09-30T03:12:45;102449.78;;;12.05;99.73
57990;BME280;58373;51.824;5.564;2023-09-30T03:15:10;102450.63;;;12.06;99.65
57990;BME280;58373;51.824;5.564;2023-09-30T03:17:35;102446.25;;;12.06;99.78
57990;BME280;58373;51.824;5.564;2023-09-30T03:20:02;102436.66;;;12.07;99.49
57990;BME280;58373;51.824;5.564;2023-09-30T03:22:34;102445.19;;;12.09;99.99
57990;BME280;58373;51.824;5.564;2023-09-30T03:24:59;102439.16;;;12.08;99.69
57990;BME280;58373;51.824;5.564;2023-09-30T03:27:25;102436.47;;;12.10;100.00
57990;BME280;58373;51.824;5.564;2023-09-30T03:29:50;102436.56;;;12.08;100.00
57990;BME280;58373;51.824;5.564;2023-09-30T03:32:15;102442.72;;;12.07;99.91
57990;BME280;58373;51.824;5.564;2023-09-30T03:34:40;102433.34;;;12.05;99.93
57990;BME280;58373;51.824;5.564;2023-09-30T03:37:09;102441.03;;;12.06;100.00
57990;BME280;58373;51.824;5.564;2023-09-30T03:39:35;102433.97;;;12.08;100.00
57990;BME280;58373;51.824;5.564;2023-09-30T03:42:00;102433.97;;;12.08;100.00
57990;BME280;58373;51.824;5.564;2023-09-30T03:44:26;102440.84;;;12.09;100.00
57990;BME280;58373;51.824;5.564;2023-09-30T03:46:51;102435.63;;;12.09;100.00
57990;BME280;58373;51.824;5.564;2023-09-30T03:49:17;102442.53;;;12.10;100.00
57990;BME280;58373;51.824;5.564;2023-09-30T03:51:44;102440.00;;;12.09;100.00
57990;BME280;58373;51.824;5.564;2023-09-30T03:54:10;102439.00;;;12.11;100.00
57990;BME280;58373;51.824;5.564;2023-09-30T03:56:36;102439.00;;;12.11;100.00
57990;BME280;58373;51.824;5.564;2023-09-30T03:59:03;102432.13;;;12.10;100.00
57990;BME280;58373;51.824;5.564;2023-09-30T04:01:28;102432.13;;;12.10;100.00
57990;BME280;58373;51.824;5.564;2023-09-30T04:03:54;102429.59;;;12.09;100.00
57990;BME280;58373;51.824;5.564;2023-09-30T04:06:20;102440.00;;;12.09;100.00
57990;BME280;58373;51.824;5.564;2023-09-30T04:08:45;102437.50;;;12.07;100.00
57990;BME280;58373;51.824;5.564;2023-09-30T04:11:10;102451.44;;;12.06;100.00
57990;BME280;58373;51.824;5.564;2023-09-30T04:13:41;102453.28;;;12.04;100.00
57990;BME280;58373;51.824;5.564;2023-09-30T04:16:07;102438.72;;;12.02;100.00
57990;BME280;58373;51.824;5.564;2023-09-30T04:18:32;102436.94;;;12.02;100.00
57990;BME280;58373;51.824;5.564;2023-09-30T04:20:57;102441.97;;;12.05;100.00
57990;BME280;58373;51.824;5.564;2023-09-30T04:23:22;102443.63;;;12.06;100.00
57990;BME280;58373;51.824;5.564;2023-09-30T04:25:47;102447.06;;;12.07;100.00
57990;BME280;58373;51.824;5.564;2023-09-30T04:28:13;102446.25;;;12.06;100.00
57990;BME280;58373;51.824;5.564;2023-09-30T04:30:39;102442.88;;;12.04;100.00
57990;BME280;58373;51.824;5.564;2023-09-30T04:33:04;102442.88;;;12.04;100.00
57990;BME280;58373;51.824;5.564;2023-09-30T04:35:30;102449.78;;;12.05;100.00
57990;BME280;58373;51.824;5.564;2023-09-30T04:37:55;102449.78;;;12.05;100.00
57990;BME280;58373;51.824;5.564;2023-09-30T04:40:21;102457.59;;;12.05;100.00
57990;BME280;58373;51.824;5.564;2023-09-30T04:42:46;102461.84;;;12.06;100.00
57990;BME280;58373;51.824;5.564;2023-09-30T04:45:12;102460.19;;;12.05;100.00
57990;BME280;58373;51.824;5.564;2023-09-30T04:47:37;102463.69;;;12.04;100.00
57990;BME280;58373;51.824;5.564;2023-09-30T04:50:05;102462.03;;;12.03;100.00
57990;BME280;58373;51.824;5.564;2023-09-30T04:52:32;102455.97;;;12.03;100.00
57990;BME280;58373;51.824;5.564;2023-09-30T04:54:57;102455.97;;;12.03;100.00
57990;BME280;58373;51.824;5.564;2023-09-30T04:57:23;102456.81;;;12.03;100.00
57990;BME280;58373;51.824;5.564;2023-09-30T04:59:48;102457.75;;;12.02;100.00
57990;BME280;58373;51.824;5.564;2023-09-30T05:02:13;102468.25;;;12.01;100.00
57990;BME280;58373;51.824;5.564;2023-09-30T05:04:42;102465.75;;;11.99;100.00
57990;BME280;58373;51.824;5.564;2023-09-30T05:07:10;102477.06;;;11.98;100.00
57990;BME280;58373;51.824;5.564;2023-09-30T05:09:35;102483.97;;;11.99;100.00
57990;BME280;58373;51.824;5.564;2023-09-30T05:12:01;102483.41;;;11.94;100.00
57990;BME280;58373;51.824;5.564;2023-09-30T05:14:26;102479.03;;;11.94;100.00
57990;BME280;58373;51.824;5.564;2023-09-30T05:16:54;102488.59;;;11.94;100.00
57990;BME280;58373;51.824;5.564;2023-09-30T05:19:19;102476.53;;;11.93;100.00
57990;BME280;58373;51.824;5.564;2023-09-30T05:21:45;102474.00;;;11.91;100.00
57990;BME280;58373;51.824;5.564;2023-09-30T05:24:11;102478.56;;;11.88;100.00
57990;BME280;58373;51.824;5.564;2023-09-30T05:26:36;102477.53;;;11.90;100.00
57990;BME280;58373;51.824;5.564;2023-09-30T05:29:01;102481.91;;;11.90;100.00
57990;BME280;58373;51.824;5.564;2023-09-30T05:31:27;102483.56;;;11.91;100.00
57990;BME280;58373;51.824;5.564;2023-09-30T05:33:52;102486.19;;;11.91;100.00
57990;BME280;58373;51.824;5.564;2023-09-30T05:36:17;102490.66;;;11.89;100.00
57990;BME280;58373;51.824;5.564;2023-09-30T05:38:43;102485.44;;;11.89;100.00
57990;BME280;58373;51.824;5.564;2023-09-30T05:41:08;102488.97;;;11.88;100.00
57990;BME280;58373;51.824;5.564;2023-09-30T05:43:33;102490.81;;;11.86;100.00
57990;BME280;58373;51.824;5.564;2023-09-30T05:45:58;102490.19;;;11.82;100.00
57990;BME280;58373;51.824;5.564;2023-09-30T05:48:23;102492.00;;;11.80;100.00
57990;BME280;58373;51.824;5.564;2023-09-30T05:50:49;102488.66;;;11.78;100.00
57990;BME280;58373;51.824;5.564;2023-09-30T05:53:14;102489.50;;;11.79;100.00
57990;BME280;58373;51.824;5.564;2023-09-30T05:55:40;102485.97;;;11.80;100.00
57990;BME280;58373;51.824;5.564;2023-09-30T05:58:12;102472.97;;;11.80;100.00
57990;BME280;58373;51.824;5.564;2023-09-30T06:00:38;102480.75;;;11.80;100.00
57990;BME280;58373;51.824;5.564;2023-09-30T06:03:04;102480.97;;;11.77;100.00
57990;BME280;58373;51.824;5.564;2023-09-30T06:05:31;102482.63;;;11.78;100.00
57990;BME280;58373;51.824;5.564;2023-09-30T06:07:57;102493.03;;;11.78;100.00
57990;BME280;58373;51.824;5.564;2023-09-30T06:10:22;102489.59;;;11.77;100.00
57990;BME280;58373;51.824;5.564;2023-09-30T06:12:48;102491.53;;;11.74;100.00
57990;BME280;58373;51.824;5.564;2023-09-30T06:15:17;102491.53;;;11.74;100.00
57990;BME280;58373;51.824;5.564;2023-09-30T06:17:46;102511.50;;;11.73;100.00
57990;BME280;58373;51.824;5.564;2023-09-30T06:20:12;102509.00;;;11.72;100.00
57990;BME280;58373;51.824;5.564;2023-09-30T06:22:41;102495.06;;;11.73;100.00
57990;BME280;58373;51.824;5.564;2023-09-30T06:25:07;102480.28;;;11.73;100.00
57990;BME280;58373;51.824;5.564;2023-09-30T06:27:32;102481.97;;;11.74;100.00
57990;BME280;58373;51.824;5.564;2023-09-30T06:29:57;102477.59;;;11.75;100.00
57990;BME280;58373;51.824;5.564;2023-09-30T06:32:23;102475.00;;;11.75;100.00
57990;BME280;58373;51.824;5.564;2023-09-30T06:34:48;102486.16;;;11.77;100.00
57990;BME280;58373;51.824;5.564;2023-09-30T06:37:13;102480.03;;;11.78;100.00
57990;BME280;58373;51.824;5.564;2023-09-30T06:39:38;102488.75;;;11.77;100.00
57990;BME280;58373;51.824;5.564;2023-09-30T06:42:04;102499.88;;;11.79;100.00
57990;BME280;58373;51.824;5.564;2023-09-30T06:44:29;102501.56;;;11.80;100.00
57990;BME280;58373;51.824;5.564;2023-09-30T06:46:56;102515.47;;;11.79;100.00
57990;BME280;58373;51.824;5.564;2023-09-30T06:49:21;102515.34;;;11.82;100.00
57990;BME280;58373;51.824;5.564;2023-09-30T06:51:46;102516.81;;;11.86;100.00
57990;BME280;58373;51.824;5.564;2023-09-30T06:54:12;102519.97;;;11.91;100.00
57990;BME280;58373;51.824;5.564;2023-09-30T06:56:37;102530.09;;;11.95;100.00
57990;BME280;58373;51.824;5.564;2023-09-30T06:59:03;102529.06;;;11.98;100.00
57990;BME280;58373;51.824;5.564;2023-09-30T07:01:28;102537.53;;;12.02;100.00
57990;BME280;58373;51.824;5.564;2023-09-30T07:03:53;102536.50;;;12.04;100.00
57990;BME280;58373;51.824;5.564;2023-09-30T07:06:24;102537.16;;;12.08;100.00
57990;BME280;58373;51.824;5.564;2023-09-30T07:08:50;102539.50;;;12.12;100.00
57990;BME280;58373;51.824;5.564;2023-09-30T07:11:15;102549.69;;;12.15;100.00
57990;BME280;58373;51.824;5.564;2023-09-30T07:13:40;102544.31;;;12.18;100.00
57990;BME280;58373;51.824;5.564;2023-09-30T07:16:06;102551.03;;;12.22;100.00
57990;BME280;58373;51.824;5.564;2023-09-30T07:18:31;102549.88;;;12.27;100.00
57990;BME280;58373;51.824;5.564;2023-09-30T07:20:56;102556.47;;;12.32;100.00
57990;BME280;58373;51.824;5.564;2023-09-30T07:23:22;102561.50;;;12.35;100.00
57990;BME280;58373;51.824;5.564;2023-09-30T07:25:47;102557.69;;;12.41;100.00
57990;BME280;58373;51.824;5.564;2023-09-30T07:28:12;102559.19;;;12.45;100.00
57990;BME280;58373;51.824;5.564;2023-09-30T07:30:38;102563.25;;;12.49;100.00
57990;BME280;58373;51.824;5.564;2023-09-30T07:33:04;102575.16;;;12.53;100.00
57990;BME280;58373;51.824;5.564;2023-09-30T07:35:29;102579.25;;;12.57;100.00
57990;BME280;58373;51.824;5.564;2023-09-30T07:37:54;102587.50;;;12.64;100.00
57990;BME280;58373;51.824;5.564;2023-09-30T07:40:19;102588.88;;;12.69;100.00
57990;BME280;58373;51.824;5.564;2023-09-30T07:42:46;102590.38;;;12.73;100.00
57990;BME280;58373;51.824;5.564;2023-09-30T07:45:11;102599.66;;;12.77;100.00
57990;BME280;58373;51.824;5.564;2023-09-30T07:47:41;102599.25;;;12.84;100.00
57990;BME280;58373;51.824;5.564;2023-09-30T07:50:07;102593.66;;;12.90;100.00
57990;BME280;58373;51.824;5.564;2023-09-30T07:52:34;102596.81;;;12.95;100.00
57990;BME280;58373;51.824;5.564;2023-09-30T07:54:59;102599.25;;;12.98;100.00
57990;BME280;58373;51.824;5.564;2023-09-30T07:57:25;102601.84;;;12.98;100.00
57990;BME280;58373;51.824;5.564;2023-09-30T07:59:50;102592.91;;;13.02;100.00
57990;BME280;58373;51.824;5.564;2023-09-30T08:02:16;102592.50;;;13.08;100.00
57990;BME280;58373;51.824;5.564;2023-09-30T08:04:42;102596.41;;;13.15;100.00
57990;BME280;58373;51.824;5.564;2023-09-30T08:07:08;102586.34;;;13.23;100.00
57990;BME280;58373;51.824;5.564;2023-09-30T08:09:34;102576.97;;;13.34;100.00
57990;BME280;58373;51.824;5.564;2023-09-30T08:11:59;102584.28;;;13.41;100.00
57990;BME280;58373;51.824;5.564;2023-09-30T08:14:24;102584.53;;;13.51;100.00
57990;BME280;58373;51.824;5.564;2023-09-30T08:16:50;102578.72;;;13.60;100.00
57990;BME280;58373;51.824;5.564;2023-09-30T08:19:15;102585.19;;;13.67;100.00
57990;BME280;58373;51.824;5.564;2023-09-30T08:21:40;102584.59;;;13.76;100.00
57990;BME280;58373;51.824;5.564;2023-09-30T08:24:05;102585.84;;;13.84;100.00
57990;BME280;58373;51.824;5.564;2023-09-30T08:26:31;102576.84;;;13.88;100.00
57990;BME280;58373;51.824;5.564;2023-09-30T08:28:56;102566.03;;;13.94;100.00
57990;BME280;58373;51.824;5.564;2023-09-30T08:31:21;102566.44;;;14.00;100.00
57990;BME280;58373;51.824;5.564;2023-09-30T08:33:46;102564.25;;;14.07;100.00
57990;BME280;58373;51.824;5.564;2023-09-30T08:36:12;102566.31;;;14.15;100.00
57990;BME280;58373;51.824;5.564;2023-09-30T08:38:38;102564.03;;;14.23;100.00
57990;BME280;58373;51.824;5.564;2023-09-30T08:41:04;102568.72;;;14.30;100.00
57990;BME280;58373;51.824;5.564;2023-09-30T08:43:30;102576.81;;;14.39;100.00
57990;BME280;58373;51.824;5.564;2023-09-30T08:46:00;102575.41;;;14.47;100.00
57990;BME280;58373;51.824;5.564;2023-09-30T08:48:27;102570.56;;;14.54;100.00
57990;BME280;58373;51.824;5.564;2023-09-30T08:50:53;102568.22;;;14.62;100.00
57990;BME280;58373;51.824;5.564;2023-09-30T08:53:19;102564.88;;;14.73;100.00
57990;BME280;58373;51.824;5.564;2023-09-30T08:55:45;102566.94;;;14.80;100.00
57990;BME280;58373;51.824;5.564;2023-09-30T08:58:11;102573.41;;;14.87;100.00
57990;BME280;58373;51.824;5.564;2023-09-30T09:00:37;102575.34;;;14.97;100.00
57990;BME280;58373;51.824;5.564;2023-09-30T09:03:03;102579.19;;;15.04;100.00
57990;BME280;58373;51.824;5.564;2023-09-30T09:05:29;102572.44;;;15.12;100.00
57990;BME280;58373;51.824;5.564;2023-09-30T09:07:54;102577.13;;;15.20;100.00
57990;BME280;58373;51.824;5.564;2023-09-30T09:10:19;102568.72;;;15.28;100.00
57990;BME280;58373;51.824;5.564;2023-09-30T09:12:44;102577.88;;;15.33;100.00
57990;BME280;58373;51.824;5.564;2023-09-30T09:15:26;102589.53;;;15.40;100.00
57990;BME280;58373;51.824;5.564;2023-09-30T09:17:51;102589.59;;;15.52;100.00
57990;BME280;58373;51.824;5.564;2023-09-30T09:20:20;102586.28;;;15.61;100.00
57990;BME280;58373;51.824;5.564;2023-09-30T09:22:47;102604.75;;;15.71;100.00
57990;BME280;58373;51.824;5.564;2023-09-30T09:25:12;102602.41;;;15.79;100.00
57990;BME280;58373;51.824;5.564;2023-09-30T09:27:38;102604.56;;;15.85;100.00
57990;BME280;58373;51.824;5.564;2023-09-30T09:30:16;102605.63;;;15.93;100.00
57990;BME280;58373;51.824;5.564;2023-09-30T09:32:54;102611.84;;;16.04;100.00
57990;BME280;58373;51.824;5.564;2023-09-30T09:35:20;102605.91;;;16.13;100.00
57990;BME280;58373;51.824;5.564;2023-09-30T09:40:24;102622.34;;;16.26;99.85
57990;BME280;58373;51.824;5.564;2023-09-30T09:42:50;102620.56;;;16.38;100.00
57990;BME280;58373;51.824;5.564;2023-09-30T09:45:19;102632.81;;;16.49;98.82
57990;BME280;58373;51.824;5.564;2023-09-30T09:47:45;102626.00;;;16.57;98.82
57990;BME280;58373;51.824;5.564;2023-09-30T09:50:11;102629.94;;;16.63;98.55
57990;BME280;58373;51.824;5.564;2023-09-30T09:52:38;102623.38;;;16.68;98.27
57990;BME280;58373;51.824;5.564;2023-09-30T09:55:04;102627.34;;;16.74;97.41
57990;BME280;58373;51.824;5.564;2023-09-30T09:57:31;102628.78;;;16.78;97.27
57990;BME280;58373;51.824;5.564;2023-09-30T09:59:56;102624.97;;;16.82;97.12
57990;BME280;58373;51.824;5.564;2023-09-30T10:02:22;102629.00;;;16.86;96.73
57990;BME280;58373;51.824;5.564;2023-09-30T10:04:47;102633.88;;;16.91;96.68
57990;BME280;58373;51.824;5.564;2023-09-30T10:07:16;102629.91;;;16.96;96.68
57990;BME280;58373;51.824;5.564;2023-09-30T10:09:45;102634.56;;;17.04;95.78
57990;BME280;58373;51.824;5.564;2023-09-30T10:12:12;102637.75;;;17.08;95.65
57990;BME280;58373;51.824;5.564;2023-09-30T10:14:38;102651.19;;;17.14;95.12
57990;BME280;58373;51.824;5.564;2023-09-30T10:17:03;102651.81;;;17.18;95.38
57990;BME280;58373;51.824;5.564;2023-09-30T10:19:28;102644.13;;;17.26;94.48
57990;BME280;58373;51.824;5.564;2023-09-30T10:24:39;102633.16;;;17.32;94.04
57990;BME280;58373;51.824;5.564;2023-09-30T10:29:49;102614.94;;;17.51;92.35
57990;BME280;58373;51.824;5.564;2023-09-30T10:32:19;102613.75;;;17.56;93.35
57990;BME280;58373;51.824;5.564;2023-09-30T10:34:50;102600.94;;;17.62;92.89
57990;BME280;58373;51.824;5.564;2023-09-30T10:37:20;102606.16;;;17.73;92.92
57990;BME280;58373;51.824;5.564;2023-09-30T10:39:52;102603.72;;;17.82;92.47
57990;BME280;58373;51.824;5.564;2023-09-30T10:45:03;102601.28;;;17.90;91.13
57990;BME280;58373;51.824;5.564;2023-09-30T10:49:56;102599.16;;;18.04;90.01
57990;BME280;58373;51.824;5.564;2023-09-30T10:52:21;102595.03;;;18.12;90.17
57990;BME280;58373;51.824;5.564;2023-09-30T10:54:48;102589.81;;;18.21;89.88
57990;BME280;58373;51.824;5.564;2023-09-30T10:57:14;102597.31;;;18.26;89.50
57990;BME280;58373;51.824;5.564;2023-09-30T10:59:52;102606.47;;;18.31;89.10
57990;BME280;58373;51.824;5.564;2023-09-30T11:02:31;102602.88;;;18.33;88.40
57990;BME280;58373;51.824;5.564;2023-09-30T11:04:56;102593.19;;;18.33;86.21
57990;BME280;58373;51.824;5.564;2023-09-30T11:07:22;102602.28;;;18.19;86.66
57990;BME280;58373;51.824;5.564;2023-09-30T11:09:49;102605.13;;;18.16;86.81
57990;BME280;58373;51.824;5.564;2023-09-30T11:12:14;102604.22;;;18.27;86.65
57990;BME280;58373;51.824;5.564;2023-09-30T11:14:40;102591.97;;;18.37;86.48
57990;BME280;58373;51.824;5.564;2023-09-30T11:17:05;102609.28;;;18.49;86.41
57990;BME280;58373;51.824;5.564;2023-09-30T11:19:45;102603.53;;;18.65;86.30
57990;BME280;58373;51.824;5.564;2023-09-30T11:22:11;102598.31;;;18.75;85.54
57990;BME280;58373;51.824;5.564;2023-09-30T11:24:36;102590.59;;;18.83;84.93
57990;BME280;58373;51.824;5.564;2023-09-30T11:27:02;102603.75;;;18.93;82.96
57990;BME280;58373;51.824;5.564;2023-09-30T11:29:27;102599.97;;;18.86;83.47
57990;BME280;58373;51.824;5.564;2023-09-30T11:31:52;102593.47;;;18.80;83.32
57990;BME280;58373;51.824;5.564;2023-09-30T11:34:17;102591.94;;;18.68;82.61
57990;BME280;58373;51.824;5.564;2023-09-30T11:36:50;102588.00;;;18.52;82.25
57990;BME280;58373;51.824;5.564;2023-09-30T11:39:22;102581.88;;;18.42;82.28
57990;BME280;58373;51.824;5.564;2023-09-30T11:41:51;102573.56;;;18.37;82.57
57990;BME280;58373;51.824;5.564;2023-09-30T11:44:17;102574.09;;;18.31;82.39
57990;BME280;58373;51.824;5.564;2023-09-30T11:49:31;102561.06;;;18.20;82.17
57990;BME280;58373;51.824;5.564;2023-09-30T11:52:04;102569.38;;;18.25;82.15
57990;BME280;58373;51.824;5.564;2023-09-30T11:54:33;102577.16;;;18.36;81.47
57990;BME280;58373;51.824;5.564;2023-09-30T11:57:01;102577.75;;;18.49;81.14
57990;BME280;58373;51.824;5.564;2023-09-30T11:59:28;102577.72;;;18.70;79.14
57990;BME280;58373;51.824;5.564;2023-09-30T12:01:53;102567.31;;;18.69;80.32
57990;BME280;58373;51.824;5.564;2023-09-30T12:04:19;102577.03;;;18.78;79.08
57990;BME280;58373;51.824;5.564;2023-09-30T12:06:45;102591.66;;;18.80;78.89
57990;BME280;58373;51.824;5.564;2023-09-30T12:09:10;102594.19;;;18.82;79.34
57990;BME280;58373;51.824;5.564;2023-09-30T12:11:40;102594.06;;;18.93;78.15
57990;BME280;58373;51.824;5.564;2023-09-30T12:14:09;102594.75;;;18.95;77.94
57990;BME280;58373;51.824;5.564;2023-09-30T12:16:34;102583.25;;;18.96;77.50
57990;BME280;58373;51.824;5.564;2023-09-30T12:18:59;102575.91;;;18.90;76.82
57990;BME280;58373;51.824;5.564;2023-09-30T12:21:24;102572.59;;;18.88;76.51
57990;BME280;58373;51.824;5.564;2023-09-30T12:23:49;102565.28;;;18.82;75.30
57990;BME280;58373;51.824;5.564;2023-09-30T12:26:16;102566.25;;;18.81;75.45
57990;BME280;58373;51.824;5.564;2023-09-30T12:28:42;102563.47;;;18.82;74.94
57990;BME280;58373;51.824;5.564;2023-09-30T12:31:07;102560.00;;;18.82;73.40
57990;BME280;58373;51.824;5.564;2023-09-30T12:33:33;102549.22;;;18.85;74.61
57990;BME280;58373;51.824;5.564;2023-09-30T12:35:59;102549.91;;;18.87;74.52
57990;BME280;58373;51.824;5.564;2023-09-30T12:38:24;102535.50;;;18.91;73.29
57990;BME280;58373;51.824;5.564;2023-09-30T12:40:51;102533.59;;;18.93;73.77
57990;BME280;58373;51.824;5.564;2023-09-30T12:43:16;102528.59;;;18.90;73.41
57990;BME280;58373;51.824;5.564;2023-09-30T12:45:42;102532.47;;;18.86;72.13
57990;BME280;58373;51.824;5.564;2023-09-30T12:48:07;102540.22;;;18.88;70.13
57990;BME280;58373;51.824;5.564;2023-09-30T12:50:32;102536.91;;;18.76;71.94
57990;BME280;58373;51.824;5.564;2023-09-30T12:52:57;102538.28;;;18.80;72.00
57990;BME280;58373;51.824;5.564;2023-09-30T12:55:24;102533.84;;;18.80;71.81